createdAt,value
2023-03-29T00:00:14.488Z,100843.09
2023-03-29T00:02:43.196Z,100849.78
2023-03-29T00:05:12.417Z,100843.78
2023-03-29T00:07:41.194Z,100848.13
2023-03-29T00:10:11.403Z,100840.44
2023-03-29T00:12:42.748Z,100846.38
2023-03-29T00:15:11.634Z,100844.03
2023-03-29T00:17:39.787Z,100842.34
2023-03-29T00:20:10.294Z,100842.75
2023-03-29T00:22:39.891Z,100855.31
2023-03-29T00:25:08.527Z,100853.28
2023-03-29T00:27:36.901Z,100850.81
2023-03-29T00:30:08.676Z,100841.59
2023-03-29T00:32:36.633Z,100853.66
2023-03-29T00:35:05.331Z,100855.41
2023-03-29T00:37:33.861Z,100842.47
2023-03-29T00:40:02.123Z,100853.41
2023-03-29T00:42:30.084Z,100853.44
2023-03-29T00:45:01.839Z,100841.41
2023-03-29T00:47:36.154Z,100843.59
2023-03-29T00:50:06.294Z,100844.31
2023-03-29T00:52:35.814Z,100845.28
2023-03-29T00:55:10.227Z,100842.63
2023-03-29T00:57:38.987Z,100843.66
2023-03-29T01:00:10.227Z,100848.69
2023-03-29T01:02:41.084Z,100839.69
2023-03-29T01:05:14.468Z,100847.03
2023-03-29T01:07:48.160Z,100845.19
2023-03-29T01:10:21.648Z,100841.03
2023-03-29T01:12:54.478Z,100851.59
2023-03-29T01:15:27.298Z,100818.31
2023-03-29T01:17:58.333Z,100857.53
2023-03-29T01:20:39.374Z,100855.56
2023-03-29T01:23:26.955Z,100840.22
2023-03-29T01:26:01.001Z,100853.06
2023-03-29T01:28:34.724Z,100861.31
2023-03-29T01:31:08.450Z,100851.63
2023-03-29T01:33:41.615Z,100851.34
2023-03-29T01:36:17.497Z,100854.56
2023-03-29T01:38:50.702Z,100846.41
2023-03-29T01:41:18.786Z,100847.41
2023-03-29T01:43:52.576Z,100850.66
2023-03-29T01:46:31.677Z,100861.69
2023-03-29T01:49:03.958Z,100855.69
2023-03-29T01:51:38.541Z,100853.59
2023-03-29T01:54:10.803Z,100855.75
2023-03-29T01:56:41.856Z,100855.03
2023-03-29T01:59:14.724Z,100866.28
2023-03-29T02:01:49.269Z,100863.69
2023-03-29T02:04:21.187Z,100859.81
2023-03-29T02:06:54.246Z,100862.56
2023-03-29T02:09:23.406Z,100856.47
2023-03-29T02:11:53.004Z,100873.41
2023-03-29T02:14:22.483Z,100865.88
2023-03-29T02:16:50.438Z,100880.31
2023-03-29T02:19:19.661Z,100869.25
2023-03-29T02:21:57.103Z,100876.94
2023-03-29T02:24:26.569Z,100883.03
2023-03-29T02:26:54.512Z,100889.84
2023-03-29T02:29:23.867Z,100888.06
2023-03-29T02:31:56.483Z,100893.16
2023-03-29T02:34:29.933Z,100894.72
2023-03-29T02:37:01.281Z,100893.09
2023-03-29T02:39:32.274Z,100901.59
2023-03-29T02:42:01.131Z,100903.16
2023-03-29T02:44:33.273Z,100898.91
2023-03-29T02:47:07.776Z,100903.06
2023-03-29T02:49:35.938Z,100905.53
2023-03-29T02:52:09.821Z,100898.78
2023-03-29T02:54:43.605Z,100902.22
2023-03-29T02:57:12.366Z,100902.16
2023-03-29T02:59:44.077Z,100909.75
2023-03-29T03:02:13.776Z,100909.84
2023-03-29T03:04:41.746Z,100812.81
2023-03-29T03:07:09.852Z,100918.50
2023-03-29T03:09:37.795Z,100925.28
2023-03-29T03:12:06.338Z,100928.81
2023-03-29T03:14:34.456Z,100938.28
2023-03-29T03:17:04.919Z,100940.84
2023-03-29T03:19:33.122Z,100944.25
2023-03-29T03:22:01.056Z,100934.81
2023-03-29T03:24:29.206Z,100944.22
2023-03-29T03:26:58.166Z,100939.47
2023-03-29T03:29:26.210Z,100949.34
2023-03-29T03:31:54.434Z,100953.47
2023-03-29T03:34:24.201Z,100949.19
2023-03-29T03:36:52.119Z,100954.31
2023-03-29T03:39:20.116Z,100964.50
2023-03-29T03:41:48.119Z,100965.38
2023-03-29T03:44:16.633Z,100952.53
2023-03-29T03:46:44.577Z,100968.56
2023-03-29T03:49:12.532Z,100972.97
2023-03-29T03:51:42.333Z,100977.47
2023-03-29T03:54:10.410Z,100986.13
2023-03-29T03:56:38.500Z,100986.81
2023-03-29T03:59:07.081Z,100990.59
2023-03-29T04:01:35.977Z,101002.41
2023-03-29T04:04:04.636Z,101004.03
2023-03-29T04:06:32.667Z,101010.09
2023-03-29T04:09:02.440Z,101015.91
2023-03-29T04:11:30.380Z,101014.28
2023-03-29T04:13:58.320Z,101029.00
2023-03-29T04:16:26.597Z,101027.06
2023-03-29T04:18:54.651Z,101029.69
2023-03-29T04:21:22.597Z,101022.81
2023-03-29T04:23:50.558Z,101036.38
2023-03-29T04:26:19.978Z,101025.19
2023-03-29T04:28:47.951Z,101031.88
2023-03-29T04:31:16.973Z,101031.84
2023-03-29T04:33:46.793Z,101031.13
2023-03-29T04:36:15.996Z,101042.00
2023-03-29T04:38:47.437Z,101044.53
2023-03-29T04:41:16.436Z,101040.22
2023-03-29T04:43:46.705Z,101046.25
2023-03-29T04:46:14.961Z,101048.69
2023-03-29T04:48:43.615Z,101053.00
2023-03-29T04:51:11.653Z,101057.19
2023-03-29T04:53:39.591Z,101060.50
2023-03-29T04:56:08.434Z,101064.84
2023-03-29T04:58:36.427Z,101068.13
2023-03-29T05:01:06.280Z,101074.00
2023-03-29T05:03:34.456Z,101082.72
2023-03-29T05:06:06.972Z,101080.16
2023-03-29T05:08:35.336Z,101084.34
2023-03-29T05:11:03.943Z,101090.34
2023-03-29T05:13:32.021Z,101093.72
2023-03-29T05:16:00.743Z,101100.31
2023-03-29T05:18:31.046Z,101100.09
2023-03-29T05:20:59.593Z,101102.22
2023-03-29T05:23:29.033Z,101096.88
2023-03-29T05:25:57.301Z,101108.66
2023-03-29T05:28:25.213Z,101104.16
2023-03-29T05:31:01.226Z,101106.44
2023-03-29T05:33:31.268Z,101109.69
2023-03-29T05:36:03.580Z,101111.19
2023-03-29T05:38:32.826Z,101095.31
2023-03-29T05:41:01.565Z,101116.19
2023-03-29T05:43:29.916Z,101114.31
2023-03-29T05:45:57.964Z,101105.56
2023-03-29T05:48:27.051Z,101102.13
2023-03-29T05:50:57.843Z,101126.88
2023-03-29T05:53:27.583Z,101129.22
2023-03-29T05:55:56.158Z,101136.56
2023-03-29T05:58:26.830Z,101136.25
2023-03-29T06:00:54.861Z,101117.03
2023-03-29T06:03:25.605Z,101129.97
2023-03-29T06:06:00.502Z,101117.81
2023-03-29T06:08:28.657Z,101125.28
2023-03-29T06:11:02.427Z,101126.22
2023-03-29T06:13:33.571Z,101128.00
2023-03-29T06:16:02.171Z,101134.13
2023-03-29T06:18:30.103Z,101137.00
2023-03-29T06:20:59.810Z,101127.44
2023-03-29T06:23:28.166Z,101138.22
2023-03-29T06:25:56.455Z,101135.28
2023-03-29T06:28:25.060Z,101138.38
2023-03-29T06:30:56.385Z,101142.28
2023-03-29T06:33:25.432Z,101136.97
2023-03-29T06:35:53.755Z,101143.41
2023-03-29T06:38:23.388Z,101135.72
2023-03-29T06:40:52.798Z,101139.94
2023-03-29T06:43:20.944Z,101145.84
2023-03-29T06:45:48.861Z,101133.50
2023-03-29T06:48:17.416Z,101130.63
2023-03-29T06:50:46.299Z,101140.69
2023-03-29T06:53:15.724Z,101138.59
2023-03-29T06:55:45.764Z,101148.06
2023-03-29T06:58:13.960Z,101136.91
2023-03-29T07:00:42.330Z,101139.72
2023-03-29T07:03:13.494Z,101140.44
2023-03-29T07:05:42.341Z,101138.22
2023-03-29T07:08:16.565Z,101141.75
2023-03-29T07:10:49.033Z,101119.88
2023-03-29T07:13:17.349Z,101138.22
2023-03-29T07:15:45.888Z,101131.56
2023-03-29T07:18:13.959Z,101148.22
2023-03-29T07:20:42.646Z,101142.28
2023-03-29T07:23:11.493Z,101146.41
2023-03-29T07:25:41.120Z,101139.56
2023-03-29T07:28:11.274Z,101145.09
2023-03-29T07:30:39.227Z,101143.91
2023-03-29T07:33:07.200Z,101131.25
2023-03-29T07:35:36.401Z,101148.38
2023-03-29T07:38:04.467Z,101148.97
2023-03-29T07:40:32.627Z,101105.31
2023-03-29T07:43:00.654Z,101134.66
2023-03-29T07:45:30.213Z,101121.16
2023-03-29T07:47:59.806Z,101137.59
2023-03-29T07:50:28.979Z,101131.28
2023-03-29T07:52:57.684Z,101128.91
2023-03-29T07:55:25.759Z,101143.22
2023-03-29T07:57:54.102Z,101135.41
2023-03-29T08:00:25.045Z,101148.03
2023-03-29T08:02:54.986Z,101143.75
2023-03-29T08:05:37.770Z,101147.06
2023-03-29T08:08:09.766Z,101138.69
2023-03-29T08:10:39.471Z,101129.16
2023-03-29T08:13:11.070Z,101127.94
2023-03-29T08:15:40.226Z,101113.44
2023-03-29T08:18:09.738Z,101103.63
2023-03-29T08:20:37.758Z,101116.31
2023-03-29T08:23:06.502Z,101114.34
2023-03-29T08:25:35.376Z,101108.78
2023-03-29T08:28:03.563Z,101116.94
2023-03-29T08:30:31.675Z,101118.88
2023-03-29T08:32:59.760Z,101110.75
2023-03-29T08:35:29.623Z,101104.69
2023-03-29T08:37:57.561Z,101105.72
2023-03-29T08:40:30.103Z,101106.34
2023-03-29T08:43:12.898Z,101111.78
2023-03-29T08:45:51.503Z,101098.22
2023-03-29T08:48:28.534Z,101105.00
2023-03-29T08:51:02.732Z,101104.78
2023-03-29T08:53:33.906Z,101105.50
2023-03-29T08:56:06.078Z,101103.50
2023-03-29T08:58:35.799Z,101100.22
2023-03-29T09:01:08.774Z,101104.59
2023-03-29T09:03:41.863Z,101104.91
2023-03-29T09:06:13.705Z,101109.34
2023-03-29T09:08:45.183Z,101111.47
2023-03-29T09:11:39.410Z,101106.81
2023-03-29T09:14:25.903Z,101103.63
2023-03-29T09:17:02.189Z,101104.03
2023-03-29T09:19:39.015Z,101096.25
2023-03-29T09:22:17.208Z,101098.72
2023-03-29T09:24:59.570Z,101098.66
2023-03-29T09:27:31.458Z,101107.78
2023-03-29T09:30:19.067Z,101110.44
2023-03-29T09:32:53.324Z,101117.84
2023-03-29T09:35:23.380Z,101128.00
2023-03-29T09:37:55.800Z,101128.63
2023-03-29T09:40:27.861Z,101121.41
2023-03-29T09:42:57.184Z,101131.22
2023-03-29T09:45:25.124Z,101130.31
2023-03-29T09:47:57.751Z,101128.81
2023-03-29T09:50:31.912Z,101145.50
2023-03-29T09:53:01.322Z,101154.97
2023-03-29T09:55:32.383Z,101174.09
2023-03-29T09:58:03.087Z,101176.31
2023-03-29T10:00:31.036Z,101187.53
2023-03-29T10:03:00.336Z,101189.59
2023-03-29T10:05:32.032Z,101145.16
2023-03-29T10:08:02.533Z,101152.03
2023-03-29T10:10:33.119Z,101144.22
2023-03-29T10:13:04.531Z,101140.13
2023-03-29T10:15:32.727Z,101149.59
2023-03-29T10:18:03.262Z,101149.81
2023-03-29T10:20:31.823Z,101145.25
2023-03-29T10:23:01.997Z,101136.41
2023-03-29T10:25:33.762Z,101144.84
2023-03-29T10:28:07.103Z,101151.78
2023-03-29T10:30:38.685Z,101162.53
2023-03-29T10:33:09.104Z,101163.75
2023-03-29T10:35:41.934Z,101162.22
2023-03-29T10:38:14.979Z,101150.25
2023-03-29T10:40:45.790Z,101154.31
2023-03-29T10:43:16.139Z,101138.06
2023-03-29T10:45:44.840Z,101134.28
2023-03-29T10:48:15.361Z,101138.72
2023-03-29T10:50:43.946Z,101134.81
2023-03-29T10:53:18.612Z,101113.88
2023-03-29T10:55:55.152Z,101097.41
2023-03-29T10:58:35.103Z,101127.31
2023-03-29T11:01:04.029Z,101116.03
2023-03-29T11:03:54.605Z,101096.91
2023-03-29T11:06:29.331Z,101115.81
2023-03-29T11:09:01.011Z,101121.16
2023-03-29T11:12:01.090Z,101104.44
2023-03-29T11:14:46.838Z,101108.31
2023-03-29T11:17:28.489Z,101096.13
2023-03-29T11:20:14.855Z,101093.78
2023-03-29T11:22:50.411Z,101094.28
2023-03-29T11:25:35.088Z,101080.41
2023-03-29T11:28:11.084Z,101075.31
2023-03-29T11:30:45.294Z,101087.75
2023-03-29T11:33:23.173Z,101073.53
2023-03-29T11:35:57.767Z,101081.59
2023-03-29T11:38:32.952Z,101090.22
2023-03-29T11:41:12.040Z,101086.78
2023-03-29T11:43:44.054Z,101061.16
2023-03-29T11:46:17.867Z,101068.13
2023-03-29T11:48:50.800Z,101080.13
2023-03-29T11:51:23.881Z,101078.78
2023-03-29T11:53:58.043Z,101093.00
2023-03-29T11:56:33.418Z,101084.34
2023-03-29T11:59:07.573Z,101092.97
2023-03-29T12:01:40.785Z,101078.72
2023-03-29T12:04:14.952Z,101084.19
2023-03-29T12:06:49.854Z,101084.53
2023-03-29T12:09:26.707Z,101090.09
2023-03-29T12:12:04.329Z,101083.13
2023-03-29T12:14:43.970Z,101061.81
2023-03-29T12:17:16.491Z,101080.69
2023-03-29T12:19:50.149Z,101091.06
2023-03-29T12:22:18.080Z,101103.94
2023-03-29T12:24:51.174Z,101092.94
2023-03-29T12:27:31.113Z,101090.53
2023-03-29T12:30:19.749Z,101090.47
2023-03-29T12:33:02.953Z,101100.78
2023-03-29T12:35:39.573Z,101104.63
2023-03-29T12:38:14.197Z,101097.09
2023-03-29T12:40:44.933Z,101100.25
2023-03-29T12:43:24.330Z,101097.19
2023-03-29T12:45:56.227Z,101094.25
2023-03-29T12:48:27.518Z,101100.44
2023-03-29T12:51:01.026Z,101099.22
2023-03-29T12:53:34.167Z,101091.13
2023-03-29T12:56:15.427Z,101091.75
2023-03-29T12:59:09.063Z,101096.72
2023-03-29T13:01:38.873Z,101094.25
2023-03-29T13:04:19.489Z,101082.38
2023-03-29T13:07:03.124Z,101094.47
2023-03-29T13:09:35.593Z,101088.72
2023-03-29T13:12:20.289Z,101067.09
2023-03-29T13:14:52.104Z,101083.66
2023-03-29T13:17:32.674Z,101092.97
2023-03-29T13:20:22.480Z,101084.41
2023-03-29T13:23:02.081Z,101082.00
2023-03-29T13:25:51.315Z,101091.56
2023-03-29T13:28:29.456Z,101092.22
2023-03-29T13:31:05.322Z,101093.53
2023-03-29T13:33:59.410Z,101089.50
2023-03-29T13:36:41.688Z,101078.16
2023-03-29T13:39:17.940Z,101092.53
2023-03-29T13:41:49.449Z,101096.06
2023-03-29T13:44:30.299Z,101098.56
2023-03-29T13:47:16.365Z,101090.97
2023-03-29T13:49:48.621Z,101098.03
2023-03-29T13:52:24.062Z,101105.78
2023-03-29T13:54:57.566Z,101092.47
2023-03-29T13:57:32.887Z,101085.34
2023-03-29T14:00:11.654Z,101090.00
2023-03-29T14:02:47.347Z,101082.31
2023-03-29T14:05:20.900Z,101082.84
2023-03-29T14:07:52.784Z,101080.91
2023-03-29T14:10:25.687Z,101089.59
2023-03-29T14:12:55.425Z,101096.28
2023-03-29T14:15:26.713Z,101101.88
2023-03-29T14:18:00.356Z,101111.13
2023-03-29T14:20:30.541Z,101087.34
2023-03-29T14:22:58.630Z,101093.72
2023-03-29T14:25:27.394Z,101097.75
2023-03-29T14:27:55.522Z,101113.56
2023-03-29T14:30:28.415Z,101109.84
2023-03-29T14:32:58.110Z,101126.06
2023-03-29T14:35:33.287Z,101112.88
2023-03-29T14:38:03.932Z,101116.22
2023-03-29T14:40:32.650Z,101107.84
2023-03-29T14:43:05.393Z,101120.84
2023-03-29T14:45:33.566Z,101114.19
2023-03-29T14:48:03.693Z,101112.44
2023-03-29T14:50:32.448Z,101116.28
2023-03-29T14:53:03.202Z,101116.59
2023-03-29T14:55:31.659Z,101116.59
2023-03-29T14:58:00.336Z,101125.28
2023-03-29T15:00:30.270Z,101119.72
2023-03-29T15:03:00.202Z,101115.50
2023-03-29T15:05:38.772Z,101117.19
2023-03-29T15:08:10.006Z,101122.38
2023-03-29T15:10:42.348Z,101116.56
2023-03-29T15:13:17.814Z,101115.06
2023-03-29T15:15:46.355Z,101112.97
2023-03-29T15:18:17.826Z,101105.88
2023-03-29T15:20:47.444Z,101121.81
2023-03-29T15:23:24.783Z,101119.34
2023-03-29T15:25:56.710Z,101131.47
2023-03-29T15:28:31.146Z,101092.91
2023-03-29T15:33:38.266Z,101134.75
2023-03-29T15:36:10.099Z,101140.34
2023-03-29T15:38:44.112Z,101143.03
2023-03-29T15:41:14.656Z,101134.69
2023-03-29T15:43:43.160Z,101132.03
2023-03-29T15:46:13.507Z,101145.38
2023-03-29T15:48:42.175Z,101138.72
2023-03-29T15:51:13.245Z,101134.53
2023-03-29T15:53:41.363Z,101145.34
2023-03-29T15:56:11.479Z,101137.03
2023-03-29T15:58:39.726Z,101149.75
2023-03-29T16:01:16.111Z,101139.63
2023-03-29T16:03:47.084Z,101156.47
2023-03-29T16:06:18.087Z,101148.28
2023-03-29T16:08:46.142Z,101156.72
2023-03-29T16:11:14.168Z,101154.81
2023-03-29T16:13:42.194Z,101161.56
2023-03-29T16:16:12.087Z,101170.09
2023-03-29T16:18:40.042Z,101134.28
2023-03-29T16:21:12.642Z,101171.47
2023-03-29T16:23:42.978Z,101167.88
2023-03-29T16:26:12.873Z,101180.72
2023-03-29T16:28:41.064Z,101182.50
2023-03-29T16:31:11.280Z,101178.50
2023-03-29T16:33:39.269Z,101174.28
2023-03-29T16:36:08.426Z,101186.38
2023-03-29T16:38:36.344Z,101192.28
2023-03-29T16:41:06.251Z,101188.25
2023-03-29T16:43:34.220Z,101194.78
2023-03-29T16:46:02.303Z,101206.41
2023-03-29T16:48:30.554Z,101197.75
2023-03-29T16:50:58.520Z,101202.78
2023-03-29T16:53:27.091Z,101197.91
2023-03-29T16:55:55.352Z,101208.97
2023-03-29T16:58:26.925Z,101205.28
2023-03-29T17:00:56.272Z,101214.44
2023-03-29T17:03:25.261Z,101204.84
2023-03-29T17:05:55.013Z,101226.03
2023-03-29T17:08:23.213Z,101208.00
2023-03-29T17:10:54.066Z,101221.22
2023-03-29T17:13:24.075Z,101232.91
2023-03-29T17:15:54.825Z,101236.28
2023-03-29T17:18:23.951Z,101216.25
2023-03-29T17:20:53.274Z,101247.34
2023-03-29T17:23:21.316Z,101270.25
2023-03-29T17:25:49.478Z,101274.81
2023-03-29T17:28:17.594Z,101278.94
2023-03-29T17:30:46.168Z,101289.44
2023-03-29T17:33:15.724Z,101296.53
2023-03-29T17:35:44.403Z,101270.88
2023-03-29T17:38:12.721Z,101310.81
2023-03-29T17:40:41.195Z,101317.22
2023-03-29T17:43:09.152Z,101324.59
2023-03-29T17:45:37.121Z,101324.19
2023-03-29T17:48:06.549Z,101337.50
2023-03-29T17:50:36.180Z,101335.06
2023-03-29T17:53:04.118Z,101352.81
2023-03-29T17:55:32.054Z,101347.69
2023-03-29T17:57:59.969Z,101351.13
2023-03-29T18:00:28.290Z,101347.81
2023-03-29T18:02:56.545Z,101352.19
2023-03-29T18:05:24.606Z,101347.66
2023-03-29T18:07:53.917Z,101360.09
2023-03-29T18:10:21.841Z,101348.16
2023-03-29T18:12:50.159Z,101361.91
2023-03-29T18:15:18.295Z,101361.00
2023-03-29T18:17:46.486Z,101351.16
2023-03-29T18:20:14.709Z,101355.59
2023-03-29T18:22:42.868Z,101335.38
2023-03-29T18:25:12.378Z,101350.25
2023-03-29T18:27:41.005Z,101352.50
2023-03-29T18:30:09.887Z,101355.75
2023-03-29T18:32:37.926Z,101363.88
2023-03-29T18:35:06.849Z,101363.88
2023-03-29T18:37:34.847Z,101360.63
2023-03-29T18:40:04.396Z,101366.03
2023-03-29T18:42:33.699Z,101365.19
2023-03-29T18:45:01.610Z,101352.44
2023-03-29T18:47:29.549Z,101365.16
2023-03-29T18:49:57.793Z,101358.50
2023-03-29T18:52:25.814Z,101376.69
2023-03-29T18:54:53.784Z,101374.16
2023-03-29T18:57:21.781Z,101377.44
2023-03-29T18:59:51.217Z,101379.88
2023-03-29T19:02:19.309Z,101382.13
2023-03-29T19:04:47.395Z,101383.81
2023-03-29T19:07:15.333Z,101391.94
2023-03-29T19:09:43.224Z,101383.44
2023-03-29T19:12:11.290Z,101380.16
2023-03-29T19:14:39.165Z,101375.34
2023-03-29T19:17:08.557Z,101387.16
2023-03-29T19:19:37.827Z,101384.84
2023-03-29T19:22:05.847Z,101386.16
2023-03-29T19:24:33.825Z,101388.31
2023-03-29T19:27:01.845Z,101386.63
2023-03-29T19:29:29.811Z,101387.66
2023-03-29T19:31:57.983Z,101378.50
2023-03-29T19:34:28.198Z,101388.91
2023-03-29T19:36:56.656Z,101391.78
2023-03-29T19:39:26.697Z,101390.88
2023-03-29T19:41:55.420Z,101400.75
2023-03-29T19:44:24.443Z,101397.03
2023-03-29T19:46:52.812Z,101395.34
2023-03-29T19:49:20.822Z,101403.59
2023-03-29T19:51:54.484Z,101403.09
2023-03-29T19:54:24.107Z,101400.31
2023-03-29T19:56:52.831Z,101400.72
2023-03-29T19:59:20.875Z,101405.53
2023-03-29T20:01:51.815Z,101403.81
2023-03-29T20:04:20.948Z,101400.00
2023-03-29T20:06:50.577Z,101406.09
2023-03-29T20:09:18.719Z,101406.09
2023-03-29T20:11:47.586Z,101407.03
2023-03-29T20:14:15.537Z,101415.28
2023-03-29T20:16:44.830Z,101411.06
2023-03-29T20:19:14.215Z,101416.25
2023-03-29T20:21:42.224Z,101403.53
2023-03-29T20:24:12.196Z,101401.75
2023-03-29T20:26:40.168Z,101405.28
2023-03-29T20:29:08.115Z,101396.97
2023-03-29T20:31:36.093Z,101403.59
2023-03-29T20:34:04.023Z,101406.66
2023-03-29T20:36:32.050Z,101400.13
2023-03-29T20:39:01.303Z,101403.50
2023-03-29T20:41:31.510Z,101404.34
2023-03-29T20:44:00.078Z,101406.28
2023-03-29T20:46:33.443Z,101399.34
2023-03-29T20:49:02.025Z,101398.66
2023-03-29T20:51:32.190Z,101404.66
2023-03-29T20:54:04.612Z,101388.56
2023-03-29T20:56:35.689Z,101392.00
2023-03-29T20:59:04.136Z,101400.44
2023-03-29T21:01:32.172Z,101388.53
2023-03-29T21:04:00.190Z,101393.69
2023-03-29T21:06:28.175Z,101394.41
2023-03-29T21:08:56.081Z,101389.28
2023-03-29T21:11:23.966Z,101392.69
2023-03-29T21:13:53.970Z,101384.19
2023-03-29T21:16:22.130Z,101397.03
2023-03-29T21:18:50.064Z,101395.25
2023-03-29T21:21:18.172Z,101396.88
2023-03-29T21:23:46.147Z,101401.31
2023-03-29T21:26:14.059Z,101407.56
2023-03-29T21:28:42.488Z,101400.44
2023-03-29T21:31:11.780Z,101409.13
2023-03-29T21:33:39.747Z,101414.25
2023-03-29T21:36:08.342Z,101405.84
2023-03-29T21:38:36.788Z,101399.13
2023-03-29T21:41:04.846Z,101400.81
2023-03-29T21:43:32.914Z,101404.31
2023-03-29T21:46:01.054Z,101394.84
2023-03-29T21:48:30.385Z,101397.34
2023-03-29T21:50:58.697Z,101397.31
2023-03-29T21:53:27.091Z,101395.63
2023-03-29T21:55:55.441Z,101403.47
2023-03-29T21:58:23.425Z,101403.50
2023-03-29T22:00:51.515Z,101397.63
2023-03-29T22:03:19.598Z,101403.66
2023-03-29T22:05:58.403Z,101410.53
2023-03-29T22:08:27.084Z,101408.75
2023-03-29T22:10:57.033Z,101405.34
2023-03-29T22:13:26.323Z,101411.28
2023-03-29T22:15:59.239Z,101412.94
2023-03-29T22:18:30.261Z,101409.50
2023-03-29T22:20:59.610Z,101411.28
2023-03-29T22:23:27.796Z,101410.41
2023-03-29T22:25:55.709Z,101404.34
2023-03-29T22:28:23.618Z,101406.91
2023-03-29T22:30:51.520Z,101410.28
2023-03-29T22:33:19.397Z,101399.28
2023-03-29T22:35:47.311Z,101403.59
2023-03-29T22:38:16.603Z,101413.78
2023-03-29T22:40:44.504Z,101412.94
2023-03-29T22:43:12.410Z,101404.47
2023-03-29T22:45:40.634Z,101410.31
2023-03-29T22:48:08.595Z,101418.91
2023-03-29T22:50:36.730Z,101427.50
2023-03-29T22:53:04.933Z,101420.59
2023-03-29T22:55:34.268Z,101422.28
2023-03-29T22:58:02.199Z,101424.88
2023-03-29T23:00:30.206Z,101430.06
2023-03-29T23:02:58.357Z,101419.03
2023-03-29T23:05:26.454Z,101434.28
2023-03-29T23:07:55.810Z,101428.34
2023-03-29T23:10:28.732Z,101428.34
2023-03-29T23:13:08.611Z,101430.03
2023-03-29T23:15:37.844Z,101423.19
2023-03-29T23:18:06.669Z,101433.41
2023-03-29T23:20:34.572Z,101430.00
2023-03-29T23:23:02.563Z,101444.44
2023-03-29T23:25:30.606Z,101436.81
2023-03-29T23:27:59.929Z,101431.69
2023-03-29T23:30:29.695Z,101424.91
2023-03-29T23:32:58.255Z,101435.13
2023-03-29T23:35:26.353Z,101424.94
2023-03-29T23:37:54.271Z,101432.59
2023-03-29T23:40:22.274Z,101430.91
2023-03-29T23:42:50.173Z,101430.88
2023-03-29T23:45:20.205Z,101426.69
2023-03-29T23:47:48.412Z,101437.72
2023-03-29T23:50:16.854Z,101436.03
2023-03-29T23:52:46.677Z,101434.28
2023-03-29T23:55:15.670Z,101430.94
2023-03-29T23:57:44.121Z,101424.13
